ADDS TAF Board (Experimental) INFO

IDs: Format: Expanded Condensed

Updated at: 0225 UTC 24 Sep 2014

KIAH - Houston/Bush Intl, TX, US

Issued at 2320 UTC 23 Sep 2014
Time0153Z24/03Z24/04Z24/05Z24/06Z24/07Z24/08Z24/09Z24/10Z24/11Z24/12Z24/13Z24/14Z24/15Z
TypeOBSPRVLPRVLPRVLPRVLPRVLPRVLPRVLPRVLPRVLPRVLPRVLPRVLPRVL
VIS10>6>6>6>6>6>6>6>6>6>6>6>6>6
CIG250250250250250250250250250250250250250250
CoverBKNBKNBKNBKNBKNBKNBKNBKNBKNBKNBKNBKNBKNBKN
FltCat--VFRVFRVFRVFRVFRVFRVFRVFRVFRVFRVFRVFRVFR
WX----------------------------
WDir2040404040404040404040404040
WSpd46666666666666
WGst----------------------------
R08/26
XWnd45555555555555
HWnd14444444444444
R09/27
XWnd45555555555555
HWnd14444444444444
R15/33
XWnd36666666666666
HWnd-3-2-2-2-2-2-2-2-2-2-2-2-2-2
Raw TAF
KIAH 232320Z 2400/2506 04006KT P6SM BKN250
  FM241700 09008KT P6SM SCT250


Raw METAR
KIAH 240153Z 02004KT 10SM BKN250 22/16 A3006 RMK AO2 SLP180 T02170156

TAF Board Legend

Hazard VFR MVFR IFR LIFR
Visibility (sm) >5 3≤X≤5 1≤X<3 <1
Ceiling (100 ft) >30 10≤X≤30 5≤X<10 <5
Wind Speed (kt) <10 10≤X<20 20≤X<30 ≥30
Wind Gust (kt) <15 15≤X<25 25≤X<35 ≥35
Weather No Wx Reported VCTS,-TS,-FZRA TS,FZRA +TS,+FZRA


Page loaded:  02:25 UTC  |   07:25 PM Pacific  |   08:25 PM Mountain  |   09:25 PM Central  |   10:25 PM Eastern

 

ADVISORIES

FORECASTS

FORECASTS

OBSERVATIONS

USER TOOLS

ABOUT US